createdAt,value
2023-04-21T00:01:32.928Z,4.22
2023-04-21T00:04:01.299Z,5.00
2023-04-21T00:06:31.413Z,4.72
2023-04-21T00:11:26.289Z,7.85
2023-04-21T00:13:53.679Z,4.68
2023-04-21T00:16:21.149Z,5.82
2023-04-21T00:18:48.962Z,4.05
2023-04-21T00:21:17.725Z,5.50
2023-04-21T00:23:47.300Z,5.30
2023-04-21T00:26:15.051Z,6.10
2023-04-21T00:28:43.246Z,4.78
2023-04-21T00:31:10.717Z,7.43
2023-04-21T00:33:38.570Z,5.20
2023-04-21T00:36:06.050Z,4.62
2023-04-21T00:38:33.496Z,5.70
2023-04-21T00:41:01.349Z,6.03
2023-04-21T00:43:30.918Z,5.50
2023-04-21T00:45:58.383Z,5.55
2023-04-21T00:48:26.063Z,6.30
2023-04-21T00:50:53.529Z,5.15
2023-04-21T00:53:20.964Z,5.37
2023-04-21T00:55:51.378Z,5.55
2023-04-21T00:58:18.769Z,4.93
2023-04-21T01:00:46.269Z,5.72
2023-04-21T01:03:14.210Z,6.82
2023-04-21T01:05:42.547Z,12.32
2023-04-21T01:08:12.571Z,4.95
2023-04-21T01:10:40.222Z,4.75
2023-04-21T01:13:07.629Z,4.43
2023-04-21T01:15:35.008Z,4.75
2023-04-21T01:18:03.060Z,7.95
2023-04-21T01:20:30.495Z,4.97
2023-04-21T01:22:58.492Z,5.78
2023-04-21T01:25:28.343Z,5.10
2023-04-21T01:27:56.646Z,5.55
2023-04-21T01:30:24.097Z,3.90
2023-04-21T01:32:52.221Z,6.28
2023-04-21T01:35:19.713Z,5.25
2023-04-21T01:37:47.136Z,6.28
2023-04-21T01:40:14.870Z,3.87
2023-04-21T01:42:43.284Z,3.87
2023-04-21T01:45:11.159Z,5.70
2023-04-21T01:47:38.892Z,5.22
2023-04-21T01:50:07.978Z,4.32
2023-04-21T01:52:35.553Z,4.15
2023-04-21T01:55:03.217Z,4.82
2023-04-21T01:57:30.717Z,5.05
2023-04-21T01:59:58.239Z,4.68
2023-04-21T02:02:27.800Z,4.43
2023-04-21T02:04:55.682Z,5.60
2023-04-21T02:07:23.099Z,6.72
2023-04-21T02:09:50.492Z,4.53
2023-04-21T02:12:21.191Z,8.60
2023-04-21T02:14:49.453Z,4.40
2023-04-21T02:17:17.759Z,4.72
2023-04-21T02:19:45.538Z,5.30
2023-04-21T02:22:13.012Z,5.15
2023-04-21T02:24:40.873Z,4.10
2023-04-21T02:27:08.549Z,2.40
2023-04-21T02:29:36.024Z,6.32
2023-04-21T02:32:14.265Z,7.50
2023-04-21T02:34:51.207Z,5.22
2023-04-21T02:37:18.688Z,4.50
2023-04-21T02:39:46.140Z,3.90
2023-04-21T02:42:13.862Z,3.25
2023-04-21T02:44:42.803Z,3.92
2023-04-21T02:47:10.563Z,4.00
2023-04-21T02:49:42.187Z,6.10
2023-04-21T02:52:10.001Z,6.18
2023-04-21T02:54:37.740Z,4.80
2023-04-21T02:57:05.186Z,2.95
2023-04-21T02:59:33.834Z,3.87
2023-04-21T03:02:01.743Z,3.92
2023-04-21T03:04:30.234Z,4.75
2023-04-21T03:06:58.330Z,4.62
2023-04-21T03:09:26.003Z,3.70
2023-04-21T03:11:53.724Z,4.60
2023-04-21T03:14:21.162Z,3.50
2023-04-21T03:16:48.911Z,4.18
2023-04-21T03:19:16.597Z,6.22
2023-04-21T03:21:45.103Z,3.12
2023-04-21T03:24:12.809Z,4.55
2023-04-21T03:26:43.298Z,4.40
2023-04-21T03:29:10.818Z,4.10
2023-04-21T03:31:38.678Z,3.55
2023-04-21T03:34:06.152Z,3.20
2023-04-21T03:36:33.795Z,3.45
2023-04-21T03:39:12.802Z,4.00
2023-04-21T03:41:47.143Z,3.67
2023-04-21T03:44:14.869Z,6.00
2023-04-21T03:46:42.282Z,4.32
2023-04-21T03:49:10.169Z,6.35
2023-04-21T03:51:37.878Z,6.75
2023-04-21T03:54:05.336Z,5.03
2023-04-21T03:56:32.756Z,6.82
2023-04-21T03:59:00.860Z,11.05
2023-04-21T04:01:28.717Z,4.72
2023-04-21T04:03:56.489Z,5.68
2023-04-21T04:06:24.217Z,4.28
2023-04-21T04:08:51.644Z,4.28
2023-04-21T04:11:19.369Z,3.75
2023-04-21T04:13:46.798Z,5.43
2023-04-21T04:16:14.371Z,6.53
2023-04-21T04:18:42.250Z,4.60
2023-04-21T04:21:09.635Z,5.53
2023-04-21T04:23:37.654Z,5.35
2023-04-21T04:26:05.737Z,4.82
2023-04-21T04:28:33.768Z,13.68
2023-04-21T04:31:01.339Z,8.95
2023-04-21T04:33:29.281Z,5.65
2023-04-21T04:35:58.325Z,8.32
2023-04-21T04:38:25.760Z,11.32
2023-04-21T04:40:54.833Z,6.90
2023-04-21T04:43:22.422Z,8.30
2023-04-21T04:45:50.024Z,8.23
2023-04-21T04:48:17.877Z,10.70
2023-04-21T04:50:45.317Z,9.10
2023-04-21T04:53:12.752Z,9.18
2023-04-21T04:55:40.455Z,8.60
2023-04-21T04:58:07.907Z,6.28
2023-04-21T05:00:37.061Z,6.35
2023-04-21T05:03:05.203Z,9.20
2023-04-21T05:05:32.821Z,7.90
2023-04-21T05:08:00.241Z,6.25
2023-04-21T05:10:27.997Z,8.30
2023-04-21T05:12:55.375Z,5.00
2023-04-21T05:15:23.106Z,6.15
2023-04-21T05:17:50.834Z,5.95
2023-04-21T05:20:18.288Z,6.25
2023-04-21T05:22:45.710Z,7.37
2023-04-21T05:25:15.763Z,7.05
2023-04-21T05:27:43.458Z,4.62
2023-04-21T05:30:11.419Z,5.75
2023-04-21T05:32:39.212Z,7.47
2023-04-21T05:35:07.115Z,6.90
2023-04-21T05:37:34.548Z,7.37
2023-04-21T05:40:02.302Z,6.53
2023-04-21T05:42:30.422Z,6.18
2023-04-21T05:44:58.266Z,7.05
2023-04-21T05:47:26.007Z,5.05
2023-04-21T05:49:53.961Z,8.57
2023-04-21T05:52:21.867Z,5.30
2023-04-21T05:54:49.610Z,7.03
2023-04-21T05:57:17.822Z,6.15
2023-04-21T05:59:45.349Z,7.82
2023-04-21T06:02:13.160Z,7.37
2023-04-21T06:04:41.059Z,6.53
2023-04-21T06:07:09.714Z,3.95
2023-04-21T06:09:37.306Z,5.45
2023-04-21T06:12:05.132Z,6.18
2023-04-21T06:14:32.582Z,4.35
2023-04-21T06:17:00.059Z,4.95
2023-04-21T06:19:27.764Z,4.90
2023-04-21T06:21:56.944Z,4.93
2023-04-21T06:24:27.100Z,6.53
2023-04-21T06:26:54.833Z,5.68
2023-04-21T06:29:22.397Z,5.07
2023-04-21T06:31:49.912Z,6.68
2023-04-21T06:34:18.083Z,5.30
2023-04-21T06:36:45.840Z,6.60
2023-04-21T06:39:13.306Z,5.20
2023-04-21T06:41:41.026Z,5.22
2023-04-21T06:44:08.502Z,5.55
2023-04-21T06:46:36.071Z,6.87
2023-04-21T06:49:04.119Z,7.30
2023-04-21T06:51:32.192Z,4.85
2023-04-21T06:53:59.677Z,5.70
2023-04-21T06:56:27.709Z,5.35
2023-04-21T06:58:55.514Z,6.32
2023-04-21T07:01:24.493Z,3.90
2023-04-21T07:03:52.311Z,7.53
2023-04-21T07:06:19.802Z,5.40
2023-04-21T07:08:47.208Z,6.37
2023-04-21T07:11:14.862Z,6.62
2023-04-21T07:13:42.277Z,4.72
2023-04-21T07:16:09.876Z,6.15
2023-04-21T07:18:39.927Z,5.93
2023-04-21T07:21:07.597Z,7.00
2023-04-21T07:23:34.991Z,5.72
2023-04-21T07:26:02.685Z,4.82
2023-04-21T07:28:30.148Z,6.00
2023-04-21T07:30:57.666Z,5.20
2023-04-21T07:33:25.364Z,4.68
2023-04-21T07:35:52.791Z,4.40
2023-04-21T07:38:20.288Z,6.10
2023-04-21T07:40:47.960Z,4.43
2023-04-21T07:43:15.485Z,5.53
2023-04-21T07:45:42.939Z,7.93
2023-04-21T07:48:10.963Z,5.85
2023-04-21T07:50:38.399Z,6.00
2023-04-21T07:53:05.886Z,6.25
2023-04-21T07:55:34.309Z,6.45
2023-04-21T07:58:01.702Z,7.75
2023-04-21T08:00:29.143Z,7.60
2023-04-21T08:02:56.902Z,5.70
2023-04-21T08:05:26.506Z,5.85
2023-04-21T08:07:55.745Z,7.00
2023-04-21T08:10:23.796Z,5.57
2023-04-21T08:12:51.268Z,6.60
2023-04-21T08:15:18.851Z,6.70
2023-04-21T08:17:46.596Z,7.20
2023-04-21T08:20:14.276Z,7.85
2023-04-21T08:22:41.739Z,7.57
2023-04-21T08:25:09.595Z,10.77
2023-04-21T08:27:40.127Z,11.07
2023-04-21T08:30:08.178Z,8.98
2023-04-21T08:32:35.987Z,9.48
2023-04-21T08:35:03.511Z,8.05
2023-04-21T08:37:31.076Z,10.70
2023-04-21T08:39:58.876Z,9.98
2023-04-21T08:42:26.288Z,10.55
2023-04-21T08:44:53.668Z,9.90
2023-04-21T08:47:21.332Z,14.00
2023-04-21T08:49:48.731Z,9.98
2023-04-21T08:52:16.134Z,10.77
2023-04-21T08:54:43.787Z,9.60
2023-04-21T08:57:15.750Z,11.15
2023-04-21T08:59:44.605Z,10.70
2023-04-21T09:02:21.397Z,12.40
2023-04-21T09:04:51.624Z,10.85
2023-04-21T09:07:35.901Z,8.88
2023-04-21T09:10:04.407Z,8.95
2023-04-21T09:12:32.236Z,8.35
2023-04-21T09:15:00.908Z,12.73
2023-04-21T09:17:32.733Z,13.05
2023-04-21T09:20:16.792Z,8.98
2023-04-21T09:22:44.556Z,11.57
2023-04-21T09:25:16.141Z,7.37
2023-04-21T09:27:44.072Z,10.50
2023-04-21T09:30:11.857Z,11.50
2023-04-21T09:32:40.010Z,10.35
2023-04-21T09:35:11.335Z,9.68
2023-04-21T09:37:39.527Z,9.93
2023-04-21T09:40:07.404Z,8.50
2023-04-21T09:42:39.258Z,8.98
2023-04-21T09:45:32.386Z,9.90
2023-04-21T09:50:54.787Z,6.87
2023-04-21T09:53:16.783Z,9.35
2023-04-21T09:55:44.917Z,8.55
2023-04-21T09:58:12.352Z,11.02
2023-04-21T10:00:40.995Z,9.02
2023-04-21T10:03:11.408Z,6.97
2023-04-21T10:05:42.050Z,10.27
2023-04-21T10:08:11.794Z,9.77
2023-04-21T10:10:39.462Z,9.50
2023-04-21T10:13:07.193Z,6.97
2023-04-21T10:15:38.133Z,6.20
2023-04-21T10:18:18.854Z,10.57
2023-04-21T10:21:12.029Z,7.50
2023-04-21T10:23:43.801Z,7.53
2023-04-21T10:26:22.753Z,8.40
2023-04-21T10:29:01.047Z,10.30
2023-04-21T10:31:53.644Z,7.78
2023-04-21T10:34:38.075Z,7.05
2023-04-21T10:37:05.619Z,9.57
2023-04-21T10:39:48.271Z,8.52
2023-04-21T10:42:15.818Z,7.85
2023-04-21T10:44:43.818Z,6.62
2023-04-21T10:47:11.528Z,6.65
2023-04-21T10:49:39.923Z,7.18
2023-04-21T10:52:08.240Z,9.63
2023-04-21T10:54:47.746Z,9.70
2023-04-21T10:57:19.507Z,7.75
2023-04-21T10:59:47.687Z,5.65
2023-04-21T11:02:16.606Z,7.80
2023-04-21T11:04:50.312Z,8.63
2023-04-21T11:07:24.031Z,12.45
2023-04-21T11:09:59.394Z,10.70
2023-04-21T11:12:29.207Z,9.70
2023-04-21T11:14:56.745Z,8.05
2023-04-21T11:17:24.579Z,9.05
2023-04-21T11:19:54.382Z,7.37
2023-04-21T11:22:27.890Z,6.35
2023-04-21T11:24:56.368Z,7.57
2023-04-21T11:27:23.780Z,7.30
2023-04-21T11:29:51.390Z,6.03
2023-04-21T11:32:19.169Z,8.15
2023-04-21T11:34:46.711Z,9.90
2023-04-21T11:37:26.979Z,6.62
2023-04-21T11:40:01.113Z,10.05
2023-04-21T11:42:28.623Z,6.20
2023-04-21T11:44:56.840Z,10.05
2023-04-21T11:47:25.830Z,8.13
2023-04-21T11:49:54.750Z,10.40
2023-04-21T11:52:33.169Z,10.18
2023-04-21T11:55:02.074Z,9.98
2023-04-21T11:57:30.386Z,6.90
2023-04-21T12:00:11.036Z,6.60
2023-04-21T12:02:38.949Z,8.27
2023-04-21T12:05:08.173Z,7.07
2023-04-21T12:07:37.039Z,9.30
2023-04-21T12:10:20.957Z,11.55
2023-04-21T12:12:48.493Z,7.93
2023-04-21T12:15:28.755Z,8.15
2023-04-21T12:17:56.460Z,10.02
2023-04-21T12:20:24.823Z,8.45
2023-04-21T12:22:53.375Z,5.80
2023-04-21T12:25:20.821Z,8.20
2023-04-21T12:27:52.101Z,6.20
2023-04-21T12:30:20.308Z,7.65
2023-04-21T12:32:48.504Z,9.38
2023-04-21T12:35:16.247Z,7.20
2023-04-21T12:37:44.749Z,8.88
2023-04-21T12:40:12.437Z,6.50
2023-04-21T12:42:39.948Z,6.22
2023-04-21T12:45:07.792Z,8.30
2023-04-21T12:47:36.906Z,6.22
2023-04-21T12:50:04.975Z,11.32
2023-04-21T12:52:32.460Z,8.40
2023-04-21T12:55:00.290Z,6.60
2023-04-21T12:57:27.776Z,8.90
2023-04-21T12:59:55.997Z,7.97
2023-04-21T13:02:23.782Z,8.13
2023-04-21T13:04:51.316Z,7.62
2023-04-21T13:07:21.384Z,8.05
2023-04-21T13:09:49.164Z,5.90
2023-04-21T13:12:17.310Z,9.68
2023-04-21T13:14:44.809Z,10.40
2023-04-21T13:17:12.652Z,10.48
2023-04-21T13:19:40.223Z,8.15
2023-04-21T13:22:07.733Z,6.45
2023-04-21T13:24:35.482Z,8.38
2023-04-21T13:27:02.940Z,8.93
2023-04-21T13:29:33.974Z,7.37
2023-04-21T13:32:02.613Z,7.10
2023-04-21T13:34:30.924Z,8.63
2023-04-21T13:36:58.510Z,8.57
2023-04-21T13:39:26.511Z,5.47
2023-04-21T13:41:54.411Z,6.22
2023-04-21T13:44:21.954Z,10.32
2023-04-21T13:46:52.245Z,9.35
2023-04-21T13:49:20.888Z,6.97
2023-04-21T13:51:48.321Z,9.23
2023-04-21T13:54:16.111Z,8.70
2023-04-21T13:56:43.535Z,8.52
2023-04-21T13:59:11.261Z,9.30
2023-04-21T14:01:39.001Z,7.28
2023-04-21T14:04:07.070Z,9.13
2023-04-21T14:06:34.592Z,11.00
2023-04-21T14:09:02.024Z,7.05
2023-04-21T14:11:29.841Z,7.85
2023-04-21T14:14:08.860Z,8.27
2023-04-21T14:19:04.938Z,8.00
2023-04-21T14:21:32.827Z,9.52
2023-04-21T14:24:00.876Z,7.82
2023-04-21T14:26:28.308Z,9.88
2023-04-21T14:28:56.416Z,10.07
2023-04-21T14:31:24.158Z,8.27
2023-04-21T14:33:51.636Z,7.00
2023-04-21T14:36:19.077Z,9.18
2023-04-21T14:38:46.781Z,8.82
2023-04-21T14:41:14.535Z,9.02
2023-04-21T14:43:41.936Z,16.60
2023-04-21T14:46:09.865Z,10.05
2023-04-21T14:48:37.371Z,12.88
2023-04-21T14:51:06.098Z,11.10
2023-04-21T14:53:33.861Z,11.60
2023-04-21T14:56:01.300Z,12.20
2023-04-21T14:58:28.738Z,14.87
2023-04-21T15:00:56.610Z,9.80
2023-04-21T15:03:24.295Z,9.98
2023-04-21T15:05:52.233Z,9.82
2023-04-21T15:08:20.802Z,13.77
2023-04-21T15:10:48.396Z,9.43
2023-04-21T15:13:16.479Z,11.38
2023-04-21T15:15:44.372Z,7.55
2023-04-21T15:18:11.959Z,11.45
2023-04-21T15:20:45.248Z,12.30
2023-04-21T15:23:14.004Z,10.07
2023-04-21T15:25:41.766Z,13.45
2023-04-21T15:28:09.801Z,8.68
2023-04-21T15:30:37.672Z,8.50
2023-04-21T15:33:05.333Z,11.00
2023-04-21T15:35:32.788Z,12.25
2023-04-21T15:38:00.620Z,7.93
2023-04-21T15:40:28.069Z,10.65
2023-04-21T15:42:55.503Z,12.68
2023-04-21T15:45:23.244Z,13.52
2023-04-21T15:47:51.019Z,9.27
2023-04-21T15:50:18.508Z,11.88
2023-04-21T15:52:46.235Z,9.98
2023-04-21T15:55:13.843Z,9.63
2023-04-21T15:57:41.331Z,10.65
2023-04-21T16:00:10.575Z,8.38
2023-04-21T16:02:38.865Z,9.35
2023-04-21T16:05:06.920Z,10.65
2023-04-21T16:07:34.709Z,9.48
2023-04-21T16:10:02.624Z,14.57
2023-04-21T16:12:30.225Z,10.35
2023-04-21T16:15:04.023Z,9.93
2023-04-21T16:17:44.166Z,10.80
2023-04-21T16:20:12.330Z,10.13
2023-04-21T16:22:39.771Z,8.43
2023-04-21T16:25:08.833Z,8.18
2023-04-21T16:27:36.442Z,9.15
2023-04-21T16:30:06.056Z,8.65
2023-04-21T16:32:35.951Z,8.05
2023-04-21T16:35:08.205Z,8.85
2023-04-21T16:37:38.188Z,10.65
2023-04-21T16:40:07.430Z,8.23
2023-04-21T16:42:35.213Z,8.32
2023-04-21T16:45:04.510Z,9.38
2023-04-21T16:47:37.917Z,10.38
2023-04-21T16:50:10.843Z,11.35
2023-04-21T16:52:38.320Z,9.07
2023-04-21T16:55:08.159Z,7.03
2023-04-21T17:00:07.033Z,8.93
2023-04-21T17:02:34.795Z,8.93
2023-04-21T17:05:02.660Z,9.13
2023-04-21T17:07:31.950Z,12.27
2023-04-21T17:09:59.510Z,8.93
2023-04-21T17:12:27.170Z,13.25
2023-04-21T17:14:54.577Z,9.68
2023-04-21T17:17:22.225Z,13.15
2023-04-21T17:19:50.076Z,9.57
2023-04-21T17:22:17.579Z,12.07
2023-04-21T17:24:53.211Z,10.18
2023-04-21T17:27:21.655Z,9.13
2023-04-21T17:29:49.235Z,12.63
2023-04-21T17:32:16.974Z,14.43
2023-04-21T17:34:44.812Z,9.45
2023-04-21T17:37:12.295Z,19.98
2023-04-21T17:39:39.793Z,13.73
2023-04-21T17:42:07.543Z,14.60
2023-04-21T17:44:35.194Z,17.87
2023-04-21T17:47:04.040Z,12.20
2023-04-21T17:49:31.770Z,11.50
2023-04-21T17:51:59.260Z,15.05
2023-04-21T17:54:27.000Z,12.00
2023-04-21T17:56:54.724Z,12.75
2023-04-21T17:59:22.170Z,10.40
2023-04-21T18:01:49.571Z,12.02
2023-04-21T18:04:17.518Z,9.07
2023-04-21T18:06:45.608Z,14.35
2023-04-21T18:09:13.223Z,13.20
2023-04-21T18:11:41.937Z,8.32
2023-04-21T18:14:10.211Z,16.17
2023-04-21T18:16:40.010Z,17.15
2023-04-21T18:19:09.435Z,14.18
2023-04-21T18:21:37.002Z,15.50
2023-04-21T18:24:05.056Z,10.90
2023-04-21T18:26:32.834Z,14.13
2023-04-21T18:29:00.758Z,11.90
2023-04-21T18:31:29.635Z,9.35
2023-04-21T18:33:57.702Z,15.18
2023-04-21T18:36:25.777Z,11.32
2023-04-21T18:38:53.203Z,11.55
2023-04-21T18:41:23.530Z,10.43
2023-04-21T18:43:50.972Z,9.50
2023-04-21T18:46:18.938Z,10.98
2023-04-21T18:48:47.245Z,14.32
2023-04-21T18:51:15.092Z,9.65
2023-04-21T18:53:43.374Z,8.65
2023-04-21T18:56:11.247Z,11.93
2023-04-21T18:58:38.869Z,10.30
2023-04-21T19:01:08.094Z,11.73
2023-04-21T19:03:37.888Z,7.87
2023-04-21T19:06:06.737Z,11.02
2023-04-21T19:08:41.929Z,10.30
2023-04-21T19:11:15.876Z,11.05
2023-04-21T19:13:43.542Z,12.43
2023-04-21T19:16:11.724Z,9.85
2023-04-21T19:18:39.841Z,12.73
2023-04-21T19:21:12.831Z,10.93
2023-04-21T19:23:41.755Z,12.02
2023-04-21T19:26:13.615Z,11.35
2023-04-21T19:28:41.831Z,11.65
2023-04-21T19:31:09.372Z,9.63
2023-04-21T19:33:37.242Z,11.55
2023-04-21T19:36:07.095Z,9.30
2023-04-21T19:38:35.874Z,9.02
2023-04-21T19:41:03.627Z,7.95
2023-04-21T19:43:31.818Z,10.98
2023-04-21T19:45:59.986Z,9.52
2023-04-21T19:48:28.432Z,10.32
2023-04-21T19:50:56.306Z,11.82
2023-04-21T19:53:41.269Z,8.15
2023-04-21T19:59:36.449Z,9.58
2023-04-21T20:02:09.607Z,11.90
2023-04-21T20:10:44.655Z,11.20
2023-04-21T20:13:13.854Z,10.23
2023-04-21T20:15:42.514Z,11.95
2023-04-21T20:18:10.962Z,9.68
2023-04-21T20:20:38.741Z,11.32
2023-04-21T20:23:06.395Z,7.47
2023-04-21T20:25:34.319Z,14.85
2023-04-21T20:28:02.670Z,8.23
2023-04-21T20:30:30.248Z,10.57
2023-04-21T20:32:57.754Z,10.90
2023-04-21T20:35:26.649Z,10.40
2023-04-21T20:37:55.709Z,10.95
2023-04-21T20:40:23.195Z,10.00
2023-04-21T20:42:52.086Z,13.20
2023-04-21T20:45:19.779Z,11.15
2023-04-21T20:47:47.476Z,9.48
2023-04-21T20:50:15.255Z,9.32
2023-04-21T20:52:43.019Z,14.48
2023-04-21T20:55:11.164Z,11.32
2023-04-21T20:57:39.614Z,9.50
2023-04-21T21:00:09.626Z,15.40
2023-04-21T21:02:37.799Z,9.18
2023-04-21T21:05:06.186Z,13.00
2023-04-21T21:07:33.680Z,10.38
2023-04-21T21:10:01.078Z,8.57
2023-04-21T21:12:28.829Z,10.30
2023-04-21T21:14:56.340Z,8.38
2023-04-21T21:17:23.731Z,10.43
2023-04-21T21:19:51.408Z,8.70
2023-04-21T21:22:18.794Z,8.43
2023-04-21T21:24:46.749Z,6.97
2023-04-21T21:27:14.421Z,9.45
2023-04-21T21:29:41.837Z,9.13
2023-04-21T21:32:09.244Z,8.90
2023-04-21T21:34:36.892Z,11.23
2023-04-21T21:37:04.447Z,9.88
2023-04-21T21:39:31.870Z,10.02
2023-04-21T21:41:59.535Z,8.35
2023-04-21T21:44:26.984Z,11.68
2023-04-21T21:46:54.370Z,8.07
2023-04-21T21:49:22.609Z,9.52
2023-04-21T21:51:50.515Z,7.05
2023-04-21T21:54:17.987Z,7.75
2023-04-21T21:56:45.644Z,8.00
2023-04-21T21:59:13.056Z,7.40
2023-04-21T22:01:41.611Z,10.93
2023-04-21T22:04:09.492Z,6.85
2023-04-21T22:06:37.195Z,7.62
2023-04-21T22:09:05.197Z,7.35
2023-04-21T22:11:32.882Z,7.60
2023-04-21T22:14:07.942Z,8.80
2023-04-21T22:16:46.619Z,7.12
2023-04-21T22:19:14.726Z,9.77
2023-04-21T22:21:42.141Z,7.20
2023-04-21T22:24:09.778Z,7.78
2023-04-21T22:26:37.277Z,7.75
2023-04-21T22:29:04.827Z,8.63
2023-04-21T22:31:32.503Z,9.65
2023-04-21T22:33:59.903Z,7.22
2023-04-21T22:36:27.396Z,8.32
2023-04-21T22:38:55.059Z,12.10
2023-04-21T22:41:22.768Z,9.05
2023-04-21T22:43:50.182Z,9.38
2023-04-21T22:46:17.947Z,7.75
2023-04-21T22:48:46.635Z,9.55
2023-04-21T22:51:21.077Z,9.45
2023-04-21T22:53:48.886Z,8.80
2023-04-21T22:56:16.301Z,7.22
2023-04-21T22:58:43.785Z,10.05
2023-04-21T23:01:11.636Z,7.50
2023-04-21T23:03:39.131Z,8.65
2023-04-21T23:06:06.821Z,10.00
2023-04-21T23:08:34.554Z,6.85
2023-04-21T23:11:04.113Z,9.75
2023-04-21T23:13:32.844Z,8.93
2023-04-21T23:16:01.176Z,6.25
2023-04-21T23:18:28.732Z,8.95
2023-04-21T23:20:56.174Z,8.05
2023-04-21T23:23:23.829Z,8.85
2023-04-21T23:25:51.635Z,7.00
2023-04-21T23:28:20.421Z,7.18
2023-04-21T23:30:48.226Z,7.22
2023-04-21T23:33:15.730Z,6.70
2023-04-21T23:35:43.222Z,8.30
2023-04-21T23:38:10.965Z,8.63
2023-04-21T23:40:38.398Z,8.88
2023-04-21T23:43:05.862Z,9.38
2023-04-21T23:45:33.596Z,6.55
2023-04-21T23:48:01.057Z,7.43
2023-04-21T23:50:28.505Z,9.27
2023-04-21T23:52:56.501Z,5.90
2023-04-21T23:55:23.901Z,9.38
2023-04-21T23:57:51.310Z,7.00
